sensor_id;sensor_type;location;lat;lon;timestamp;temperature;humidity
40732;DHT22;26420;52.256;9.096;2023-12-04T00:04:15;-1.20;99.90
40732;DHT22;26420;52.256;9.096;2023-12-04T00:09:17;-1.20;99.90
40732;DHT22;26420;52.256;9.096;2023-12-04T00:14:19;-1.20;99.90
40732;DHT22;26420;52.256;9.096;2023-12-04T00:19:21;-1.20;99.90
40732;DHT22;26420;52.256;9.096;2023-12-04T00:24:22;-1.20;99.90
40732;DHT22;26420;52.256;9.096;2023-12-04T00:29:24;-1.20;99.90
40732;DHT22;26420;52.256;9.096;2023-12-04T00:34:26;-1.20;99.90
40732;DHT22;26420;52.256;9.096;2023-12-04T00:39:28;-1.30;99.90
40732;DHT22;26420;52.256;9.096;2023-12-04T00:44:30;-1.30;99.90
40732;DHT22;26420;52.256;9.096;2023-12-04T00:49:33;-1.30;99.90
40732;DHT22;26420;52.256;9.096;2023-12-04T00:54:36;-1.30;99.90
40732;DHT22;26420;52.256;9.096;2023-12-04T00:59:40;-1.30;99.90
40732;DHT22;26420;52.256;9.096;2023-12-04T01:04:42;-1.30;99.90
40732;DHT22;26420;52.256;9.096;2023-12-04T01:09:44;-1.30;99.90
40732;DHT22;26420;52.256;9.096;2023-12-04T01:14:45;-1.30;99.90
40732;DHT22;26420;52.256;9.096;2023-12-04T01:19:47;-1.30;99.90
40732;DHT22;26420;52.256;9.096;2023-12-04T01:24:49;-1.30;99.90
40732;DHT22;26420;52.256;9.096;2023-12-04T01:29:50;-1.30;99.90
40732;DHT22;26420;52.256;9.096;2023-12-04T01:34:52;-1.40;99.90
40732;DHT22;26420;52.256;9.096;2023-12-04T01:39:54;-1.40;99.90
40732;DHT22;26420;52.256;9.096;2023-12-04T01:44:56;-1.50;99.90
40732;DHT22;26420;52.256;9.096;2023-12-04T01:49:57;-1.50;99.90
40732;DHT22;26420;52.256;9.096;2023-12-04T01:54:59;-1.50;99.90
40732;DHT22;26420;52.256;9.096;2023-12-04T02:00:01;-1.50;99.90
40732;DHT22;26420;52.256;9.096;2023-12-04T02:05:12;-1.50;99.90
40732;DHT22;26420;52.256;9.096;2023-12-04T02:10:15;-1.40;99.90
40732;DHT22;26420;52.256;9.096;2023-12-04T02:15:17;-1.40;99.90
40732;DHT22;26420;52.256;9.096;2023-12-04T02:20:19;-1.30;99.90
40732;DHT22;26420;52.256;9.096;2023-12-04T02:25:21;-1.30;99.90
40732;DHT22;26420;52.256;9.096;2023-12-04T02:30:36;-1.30;99.90
40732;DHT22;26420;52.256;9.096;2023-12-04T02:35:40;-1.30;99.90
40732;DHT22;26420;52.256;9.096;2023-12-04T02:40:43;-1.30;99.90
40732;DHT22;26420;52.256;9.096;2023-12-04T02:45:45;-1.30;99.90
40732;DHT22;26420;52.256;9.096;2023-12-04T02:50:47;-1.30;99.90
40732;DHT22;26420;52.256;9.096;2023-12-04T02:55:49;-1.30;99.90
40732;DHT22;26420;52.256;9.096;2023-12-04T03:00:50;-1.30;99.90
40732;DHT22;26420;52.256;9.096;2023-12-04T03:05:52;-1.20;99.90
40732;DHT22;26420;52.256;9.096;2023-12-04T03:10:54;-1.20;99.90
40732;DHT22;26420;52.256;9.096;2023-12-04T03:15:55;-1.20;99.90
40732;DHT22;26420;52.256;9.096;2023-12-04T03:20:57;-1.20;99.90
40732;DHT22;26420;52.256;9.096;2023-12-04T03:25:59;-1.20;99.90
40732;DHT22;26420;52.256;9.096;2023-12-04T03:31:01;-1.20;99.90
40732;DHT22;26420;52.256;9.096;2023-12-04T03:36:04;-1.20;99.90
40732;DHT22;26420;52.256;9.096;2023-12-04T03:41:16;-1.20;99.90
40732;DHT22;26420;52.256;9.096;2023-12-04T03:46:18;-1.20;99.90
40732;DHT22;26420;52.256;9.096;2023-12-04T03:51:22;-1.20;99.90
40732;DHT22;26420;52.256;9.096;2023-12-04T03:56:24;-1.20;99.90
40732;DHT22;26420;52.256;9.096;2023-12-04T04:01:26;-1.20;99.90
40732;DHT22;26420;52.256;9.096;2023-12-04T04:06:28;-1.20;99.90
40732;DHT22;26420;52.256;9.096;2023-12-04T04:11:29;-1.20;99.90
40732;DHT22;26420;52.256;9.096;2023-12-04T04:16:32;-1.10;99.90
40732;DHT22;26420;52.256;9.096;2023-12-04T04:21:33;-1.00;99.90
40732;DHT22;26420;52.256;9.096;2023-12-04T04:26:35;-0.90;99.90
40732;DHT22;26420;52.256;9.096;2023-12-04T04:31:37;-0.90;99.90
40732;DHT22;26420;52.256;9.096;2023-12-04T04:36:39;-0.80;99.90
40732;DHT22;26420;52.256;9.096;2023-12-04T04:41:41;-0.80;99.90
40732;DHT22;26420;52.256;9.096;2023-12-04T04:46:42;-0.70;99.90
40732;DHT22;26420;52.256;9.096;2023-12-04T04:51:44;-0.70;99.90
40732;DHT22;26420;52.256;9.096;2023-12-04T04:56:46;-0.70;99.90
40732;DHT22;26420;52.256;9.096;2023-12-04T05:01:48;-0.60;99.90
40732;DHT22;26420;52.256;9.096;2023-12-04T05:06:49;-0.60;99.90
40732;DHT22;26420;52.256;9.096;2023-12-04T05:11:51;-0.50;99.90
40732;DHT22;26420;52.256;9.096;2023-12-04T05:16:53;-0.50;99.90
40732;DHT22;26420;52.256;9.096;2023-12-04T05:21:54;-0.50;99.90
40732;DHT22;26420;52.256;9.096;2023-12-04T05:26:57;-0.40;99.90
40732;DHT22;26420;52.256;9.096;2023-12-04T05:31:59;-0.40;99.90
40732;DHT22;26420;52.256;9.096;2023-12-04T05:37:01;-0.40;99.90
40732;DHT22;26420;52.256;9.096;2023-12-04T05:42:03;-0.40;99.90
40732;DHT22;26420;52.256;9.096;2023-12-04T05:47:05;-0.40;99.90
40732;DHT22;26420;52.256;9.096;2023-12-04T05:52:09;-0.30;99.90
40732;DHT22;26420;52.256;9.096;2023-12-04T05:57:11;-0.30;99.90
40732;DHT22;26420;52.256;9.096;2023-12-04T06:02:13;-0.30;99.90
40732;DHT22;26420;52.256;9.096;2023-12-04T06:07:17;-0.30;99.90
40732;DHT22;26420;52.256;9.096;2023-12-04T06:12:18;-0.30;99.90
40732;DHT22;26420;52.256;9.096;2023-12-04T06:17:20;-0.20;99.90
40732;DHT22;26420;52.256;9.096;2023-12-04T06:22:22;-0.30;99.90
40732;DHT22;26420;52.256;9.096;2023-12-04T06:27:24;-0.30;99.90
40732;DHT22;26420;52.256;9.096;2023-12-04T06:32:26;-0.20;99.90
40732;DHT22;26420;52.256;9.096;2023-12-04T06:37:28;-0.30;99.90
40732;DHT22;26420;52.256;9.096;2023-12-04T06:42:30;-0.20;99.90
40732;DHT22;26420;52.256;9.096;2023-12-04T06:47:34;-0.20;99.90
40732;DHT22;26420;52.256;9.096;2023-12-04T06:52:36;-0.20;99.90
40732;DHT22;26420;52.256;9.096;2023-12-04T06:57:37;-0.20;99.90
40732;DHT22;26420;52.256;9.096;2023-12-04T07:02:39;-0.20;99.90
40732;DHT22;26420;52.256;9.096;2023-12-04T07:07:41;-0.20;99.90
40732;DHT22;26420;52.256;9.096;2023-12-04T07:12:44;-0.20;99.90
40732;DHT22;26420;52.256;9.096;2023-12-04T07:17:46;-0.10;99.90
40732;DHT22;26420;52.256;9.096;2023-12-04T07:22:47;-0.10;99.90
40732;DHT22;26420;52.256;9.096;2023-12-04T07:27:49;-0.20;99.90
40732;DHT22;26420;52.256;9.096;2023-12-04T07:32:51;-0.10;99.90
40732;DHT22;26420;52.256;9.096;2023-12-04T07:37:53;-0.10;99.90
40732;DHT22;26420;52.256;9.096;2023-12-04T07:42:54;0.00;99.90
40732;DHT22;26420;52.256;9.096;2023-12-04T07:47:56;0.00;99.90
40732;DHT22;26420;52.256;9.096;2023-12-04T07:52:58;0.00;99.90
40732;DHT22;26420;52.256;9.096;2023-12-04T07:57:59;0.00;99.90
40732;DHT22;26420;52.256;9.096;2023-12-04T08:03:01;0.10;99.90
40732;DHT22;26420;52.256;9.096;2023-12-04T08:08:04;0.10;99.90
40732;DHT22;26420;52.256;9.096;2023-12-04T08:13:06;0.10;99.90
40732;DHT22;26420;52.256;9.096;2023-12-04T08:18:08;0.10;99.90
40732;DHT22;26420;52.256;9.096;2023-12-04T08:23:10;0.10;99.90
40732;DHT22;26420;52.256;9.096;2023-12-04T08:28:12;0.10;99.90
40732;DHT22;26420;52.256;9.096;2023-12-04T08:33:14;0.10;99.90
40732;DHT22;26420;52.256;9.096;2023-12-04T08:38:16;0.20;99.90
40732;DHT22;26420;52.256;9.096;2023-12-04T08:43:17;0.20;99.90
40732;DHT22;26420;52.256;9.096;2023-12-04T08:48:20;0.10;99.90
40732;DHT22;26420;52.256;9.096;2023-12-04T08:53:22;0.10;99.90
40732;DHT22;26420;52.256;9.096;2023-12-04T08:58:24;0.10;99.90
40732;DHT22;26420;52.256;9.096;2023-12-04T09:03:26;0.20;99.90
40732;DHT22;26420;52.256;9.096;2023-12-04T09:08:34;0.10;99.90
40732;DHT22;26420;52.256;9.096;2023-12-04T09:13:44;0.20;99.90
40732;DHT22;26420;52.256;9.096;2023-12-04T09:18:46;0.20;99.90
40732;DHT22;26420;52.256;9.096;2023-12-04T09:23:48;0.20;99.90
40732;DHT22;26420;52.256;9.096;2023-12-04T09:28:51;0.30;99.90
40732;DHT22;26420;52.256;9.096;2023-12-04T09:33:53;0.30;99.90
40732;DHT22;26420;52.256;9.096;2023-12-04T09:38:55;0.30;99.90
40732;DHT22;26420;52.256;9.096;2023-12-04T09:43:57;0.30;99.90
40732;DHT22;26420;52.256;9.096;2023-12-04T09:48:59;0.40;99.90
40732;DHT22;26420;52.256;9.096;2023-12-04T09:54:02;0.50;99.90
40732;DHT22;26420;52.256;9.096;2023-12-04T09:59:07;0.60;99.90
40732;DHT22;26420;52.256;9.096;2023-12-04T10:04:09;0.60;99.90
40732;DHT22;26420;52.256;9.096;2023-12-04T10:09:14;0.70;99.90
40732;DHT22;26420;52.256;9.096;2023-12-04T10:14:20;0.70;99.90
40732;DHT22;26420;52.256;9.096;2023-12-04T10:19:24;0.70;99.90
40732;DHT22;26420;52.256;9.096;2023-12-04T10:24:29;0.80;99.90
40732;DHT22;26420;52.256;9.096;2023-12-04T10:29:44;0.90;99.90
40732;DHT22;26420;52.256;9.096;2023-12-04T10:34:48;0.80;99.90
40732;DHT22;26420;52.256;9.096;2023-12-04T10:39:51;0.80;99.90
40732;DHT22;26420;52.256;9.096;2023-12-04T10:44:55;0.80;99.90
40732;DHT22;26420;52.256;9.096;2023-12-04T10:49:58;0.80;99.90
40732;DHT22;26420;52.256;9.096;2023-12-04T10:55:00;0.80;99.90
40732;DHT22;26420;52.256;9.096;2023-12-04T11:00:05;0.90;99.90
40732;DHT22;26420;52.256;9.096;2023-12-04T11:05:13;0.90;99.90
40732;DHT22;26420;52.256;9.096;2023-12-04T11:10:22;0.90;99.90
40732;DHT22;26420;52.256;9.096;2023-12-04T11:15:29;1.00;99.90
40732;DHT22;26420;52.256;9.096;2023-12-04T11:20:37;1.00;99.90
40732;DHT22;26420;52.256;9.096;2023-12-04T11:25:43;1.00;99.90
40732;DHT22;26420;52.256;9.096;2023-12-04T11:30:47;0.90;99.90
40732;DHT22;26420;52.256;9.096;2023-12-04T11:35:50;0.90;99.90
40732;DHT22;26420;52.256;9.096;2023-12-04T11:40:52;0.90;99.90
40732;DHT22;26420;52.256;9.096;2023-12-04T11:46:08;1.00;99.90
40732;DHT22;26420;52.256;9.096;2023-12-04T11:51:45;0.90;99.90
40732;DHT22;26420;52.256;9.096;2023-12-04T11:57:00;0.90;99.90
40732;DHT22;26420;52.256;9.096;2023-12-04T12:02:22;1.00;99.90
40732;DHT22;26420;52.256;9.096;2023-12-04T12:07:24;1.00;99.90
40732;DHT22;26420;52.256;9.096;2023-12-04T12:12:27;1.10;99.90
40732;DHT22;26420;52.256;9.096;2023-12-04T12:17:30;1.10;99.90
40732;DHT22;26420;52.256;9.096;2023-12-04T12:22:33;1.10;99.90
40732;DHT22;26420;52.256;9.096;2023-12-04T12:27:35;1.10;99.90
40732;DHT22;26420;52.256;9.096;2023-12-04T12:32:38;1.20;99.90
40732;DHT22;26420;52.256;9.096;2023-12-04T12:37:41;1.20;99.90
40732;DHT22;26420;52.256;9.096;2023-12-04T12:42:43;1.20;99.90
40732;DHT22;26420;52.256;9.096;2023-12-04T12:47:45;1.30;99.90
40732;DHT22;26420;52.256;9.096;2023-12-04T12:52:49;1.30;99.90
40732;DHT22;26420;52.256;9.096;2023-12-04T12:57:50;1.30;99.90
40732;DHT22;26420;52.256;9.096;2023-12-04T13:02:53;1.30;99.90
40732;DHT22;26420;52.256;9.096;2023-12-04T13:07:55;1.30;99.90
40732;DHT22;26420;52.256;9.096;2023-12-04T13:12:57;1.20;99.90
40732;DHT22;26420;52.256;9.096;2023-12-04T13:18:01;1.20;99.90
40732;DHT22;26420;52.256;9.096;2023-12-04T13:23:03;1.20;99.90
40732;DHT22;26420;52.256;9.096;2023-12-04T13:28:05;1.20;99.90
40732;DHT22;26420;52.256;9.096;2023-12-04T13:33:08;1.20;99.90
40732;DHT22;26420;52.256;9.096;2023-12-04T13:38:10;1.20;99.90
40732;DHT22;26420;52.256;9.096;2023-12-04T13:43:21;1.30;99.90
40732;DHT22;26420;52.256;9.096;2023-12-04T13:48:43;1.30;99.90
40732;DHT22;26420;52.256;9.096;2023-12-04T13:53:45;1.20;99.90
40732;DHT22;26420;52.256;9.096;2023-12-04T13:58:52;1.30;99.90
40732;DHT22;26420;52.256;9.096;2023-12-04T14:04:00;1.20;99.90
40732;DHT22;26420;52.256;9.096;2023-12-04T14:09:05;1.20;99.90
40732;DHT22;26420;52.256;9.096;2023-12-04T14:14:12;1.20;99.90
40732;DHT22;26420;52.256;9.096;2023-12-04T14:19:16;1.20;99.90
40732;DHT22;26420;52.256;9.096;2023-12-04T14:24:19;1.10;99.90
40732;DHT22;26420;52.256;9.096;2023-12-04T14:29:23;1.10;99.90
40732;DHT22;26420;52.256;9.096;2023-12-04T14:34:25;1.10;99.90
40732;DHT22;26420;52.256;9.096;2023-12-04T14:39:26;1.10;99.90
40732;DHT22;26420;52.256;9.096;2023-12-04T14:44:28;1.10;99.90
40732;DHT22;26420;52.256;9.096;2023-12-04T14:49:30;1.00;99.90
40732;DHT22;26420;52.256;9.096;2023-12-04T14:54:32;1.00;99.90
40732;DHT22;26420;52.256;9.096;2023-12-04T14:59:46;1.00;99.90
40732;DHT22;26420;52.256;9.096;2023-12-04T15:05:10;1.00;99.90
40732;DHT22;26420;52.256;9.096;2023-12-04T15:10:41;0.90;99.90
40732;DHT22;26420;52.256;9.096;2023-12-04T15:16:05;0.90;99.90
40732;DHT22;26420;52.256;9.096;2023-12-04T15:21:16;0.90;99.90
40732;DHT22;26420;52.256;9.096;2023-12-04T15:26:19;0.80;99.90
40732;DHT22;26420;52.256;9.096;2023-12-04T15:31:21;0.80;99.90
40732;DHT22;26420;52.256;9.096;2023-12-04T15:36:23;0.80;99.90
40732;DHT22;26420;52.256;9.096;2023-12-04T15:41:25;0.80;99.90
40732;DHT22;26420;52.256;9.096;2023-12-04T15:46:27;0.80;99.90
40732;DHT22;26420;52.256;9.096;2023-12-04T15:51:30;0.80;99.90
40732;DHT22;26420;52.256;9.096;2023-12-04T15:56:32;0.70;99.90
40732;DHT22;26420;52.256;9.096;2023-12-04T16:01:34;0.80;99.90
40732;DHT22;26420;52.256;9.096;2023-12-04T16:06:35;0.70;99.90
40732;DHT22;26420;52.256;9.096;2023-12-04T16:11:39;0.70;99.90
40732;DHT22;26420;52.256;9.096;2023-12-04T16:16:41;0.70;99.90
40732;DHT22;26420;52.256;9.096;2023-12-04T16:21:43;0.70;99.90
40732;DHT22;26420;52.256;9.096;2023-12-04T16:26:46;0.80;99.90
40732;DHT22;26420;52.256;9.096;2023-12-04T16:31:48;0.80;99.90
40732;DHT22;26420;52.256;9.096;2023-12-04T16:36:50;0.80;99.90
40732;DHT22;26420;52.256;9.096;2023-12-04T16:41:52;0.80;99.90
40732;DHT22;26420;52.256;9.096;2023-12-04T16:46:55;0.70;99.90
40732;DHT22;26420;52.256;9.096;2023-12-04T16:51:57;0.70;99.90
40732;DHT22;26420;52.256;9.096;2023-12-04T16:56:59;0.70;99.90
40732;DHT22;26420;52.256;9.096;2023-12-04T17:02:00;0.70;99.90
40732;DHT22;26420;52.256;9.096;2023-12-04T17:07:02;0.70;99.90
40732;DHT22;26420;52.256;9.096;2023-12-04T17:12:05;0.70;99.90
40732;DHT22;26420;52.256;9.096;2023-12-04T17:17:07;0.70;99.90
40732;DHT22;26420;52.256;9.096;2023-12-04T17:22:09;0.70;99.90
40732;DHT22;26420;52.256;9.096;2023-12-04T17:27:10;0.70;99.90
40732;DHT22;26420;52.256;9.096;2023-12-04T17:32:12;0.70;99.90
40732;DHT22;26420;52.256;9.096;2023-12-04T17:37:14;0.70;99.90
40732;DHT22;26420;52.256;9.096;2023-12-04T17:42:15;0.70;99.90
40732;DHT22;26420;52.256;9.096;2023-12-04T17:47:17;0.70;99.90
40732;DHT22;26420;52.256;9.096;2023-12-04T17:52:19;0.70;99.90
40732;DHT22;26420;52.256;9.096;2023-12-04T17:57:22;0.60;99.90
40732;DHT22;26420;52.256;9.096;2023-12-04T18:02:23;0.50;99.90
40732;DHT22;26420;52.256;9.096;2023-12-04T18:07:25;0.50;99.90
40732;DHT22;26420;52.256;9.096;2023-12-04T18:12:27;0.50;99.90
40732;DHT22;26420;52.256;9.096;2023-12-04T18:17:29;0.40;99.90
40732;DHT22;26420;52.256;9.096;2023-12-04T18:22:31;0.40;99.90
40732;DHT22;26420;52.256;9.096;2023-12-04T18:27:33;0.40;99.90
40732;DHT22;26420;52.256;9.096;2023-12-04T18:32:36;0.30;99.90
40732;DHT22;26420;52.256;9.096;2023-12-04T18:42:45;0.20;99.90
40732;DHT22;26420;52.256;9.096;2023-12-04T18:48:05;0.20;99.90
40732;DHT22;26420;52.256;9.096;2023-12-04T18:53:07;0.20;99.90
40732;DHT22;26420;52.256;9.096;2023-12-04T18:58:12;0.30;99.90
40732;DHT22;26420;52.256;9.096;2023-12-04T19:03:15;0.30;99.90
40732;DHT22;26420;52.256;9.096;2023-12-04T19:08:17;0.30;99.90
40732;DHT22;26420;52.256;9.096;2023-12-04T19:13:19;0.30;99.90
40732;DHT22;26420;52.256;9.096;2023-12-04T19:18:20;0.30;99.90
40732;DHT22;26420;52.256;9.096;2023-12-04T19:23:22;0.20;99.90
40732;DHT22;26420;52.256;9.096;2023-12-04T19:28:24;0.10;99.90
40732;DHT22;26420;52.256;9.096;2023-12-04T19:33:30;0.10;99.90
40732;DHT22;26420;52.256;9.096;2023-12-04T19:38:33;0.10;99.90
40732;DHT22;26420;52.256;9.096;2023-12-04T19:43:34;0.10;99.90
40732;DHT22;26420;52.256;9.096;2023-12-04T19:48:36;0.10;99.90
40732;DHT22;26420;52.256;9.096;2023-12-04T19:53:38;0.10;99.90
40732;DHT22;26420;52.256;9.096;2023-12-04T19:58:40;0.00;99.90
40732;DHT22;26420;52.256;9.096;2023-12-04T20:03:42;0.00;99.90
40732;DHT22;26420;52.256;9.096;2023-12-04T20:08:45;0.00;99.90
40732;DHT22;26420;52.256;9.096;2023-12-04T20:13:47;0.00;99.90
40732;DHT22;26420;52.256;9.096;2023-12-04T20:18:48;-0.10;99.90
40732;DHT22;26420;52.256;9.096;2023-12-04T20:23:50;-0.20;99.90
40732;DHT22;26420;52.256;9.096;2023-12-04T20:28:52;-0.30;99.90
40732;DHT22;26420;52.256;9.096;2023-12-04T20:33:54;-0.30;99.90
40732;DHT22;26420;52.256;9.096;2023-12-04T20:38:56;-0.30;99.90
40732;DHT22;26420;52.256;9.096;2023-12-04T20:43:57;-0.20;99.90
40732;DHT22;26420;52.256;9.096;2023-12-04T20:48:59;-0.20;99.90
40732;DHT22;26420;52.256;9.096;2023-12-04T20:54:04;-0.20;99.90
40732;DHT22;26420;52.256;9.096;2023-12-04T20:59:05;-0.20;99.90
40732;DHT22;26420;52.256;9.096;2023-12-04T21:04:07;-0.10;99.90
40732;DHT22;26420;52.256;9.096;2023-12-04T21:09:10;-0.10;99.90
40732;DHT22;26420;52.256;9.096;2023-12-04T21:14:12;-0.10;99.90
40732;DHT22;26420;52.256;9.096;2023-12-04T21:19:13;-0.10;99.90
40732;DHT22;26420;52.256;9.096;2023-12-04T21:24:15;-0.10;99.90
40732;DHT22;26420;52.256;9.096;2023-12-04T21:29:19;0.00;99.90
40732;DHT22;26420;52.256;9.096;2023-12-04T21:34:21;-0.10;99.90
40732;DHT22;26420;52.256;9.096;2023-12-04T21:39:23;0.00;99.90
40732;DHT22;26420;52.256;9.096;2023-12-04T21:44:25;0.00;99.90
40732;DHT22;26420;52.256;9.096;2023-12-04T21:49:26;0.10;99.90
40732;DHT22;26420;52.256;9.096;2023-12-04T21:54:29;0.10;99.90
40732;DHT22;26420;52.256;9.096;2023-12-04T21:59:31;0.10;99.90
40732;DHT22;26420;52.256;9.096;2023-12-04T22:04:32;0.20;99.90
40732;DHT22;26420;52.256;9.096;2023-12-04T22:09:34;0.20;99.90
40732;DHT22;26420;52.256;9.096;2023-12-04T22:14:36;0.30;99.90
40732;DHT22;26420;52.256;9.096;2023-12-04T22:19:38;0.30;99.90
40732;DHT22;26420;52.256;9.096;2023-12-04T22:24:40;0.30;99.90
40732;DHT22;26420;52.256;9.096;2023-12-04T22:29:42;0.20;99.90
40732;DHT22;26420;52.256;9.096;2023-12-04T22:34:44;0.30;99.90
40732;DHT22;26420;52.256;9.096;2023-12-04T22:39:45;0.20;99.90
40732;DHT22;26420;52.256;9.096;2023-12-04T22:44:47;0.20;99.90
40732;DHT22;26420;52.256;9.096;2023-12-04T22:49:49;0.20;99.90
40732;DHT22;26420;52.256;9.096;2023-12-04T22:54:51;0.20;99.90
40732;DHT22;26420;52.256;9.096;2023-12-04T22:59:53;0.20;99.90
40732;DHT22;26420;52.256;9.096;2023-12-04T23:04:55;0.10;99.90
40732;DHT22;26420;52.256;9.096;2023-12-04T23:09:59;0.20;99.90
40732;DHT22;26420;52.256;9.096;2023-12-04T23:15:01;0.10;99.90
40732;DHT22;26420;52.256;9.096;2023-12-04T23:20:03;0.10;99.90
40732;DHT22;26420;52.256;9.096;2023-12-04T23:25:05;0.20;99.90
40732;DHT22;26420;52.256;9.096;2023-12-04T23:30:08;0.20;99.90
40732;DHT22;26420;52.256;9.096;2023-12-04T23:35:10;0.20;99.90
40732;DHT22;26420;52.256;9.096;2023-12-04T23:40:15;0.30;99.90
40732;DHT22;26420;52.256;9.096;2023-12-04T23:45:16;0.20;99.90
40732;DHT22;26420;52.256;9.096;2023-12-04T23:50:18;0.30;99.90
40732;DHT22;26420;52.256;9.096;2023-12-04T23:55:21;0.30;99.90
